sensor_id;sensor_type;location;lat;lon;timestamp;pressure;altitude;pressure_sealevel;temperature;humidity
73024;BME280;61199;47.526;8.538;2022-12-08T00:01:10;96074.34;;;3.45;72.26
73024;BME280;61199;47.526;8.538;2022-12-08T00:03:38;96077.34;;;3.39;71.87
73024;BME280;61199;47.526;8.538;2022-12-08T00:06:06;96069.38;;;3.42;72.17
73024;BME280;61199;47.526;8.538;2022-12-08T00:08:51;96066.16;;;3.51;72.35
73024;BME280;61199;47.526;8.538;2022-12-08T00:11:36;96064.84;;;3.58;71.82
73024;BME280;61199;47.526;8.538;2022-12-08T00:14:02;96069.00;;;3.61;72.14
73024;BME280;61199;47.526;8.538;2022-12-08T00:16:28;96072.31;;;3.63;72.05
73024;BME280;61199;47.526;8.538;2022-12-08T00:18:55;96066.69;;;3.69;71.55
73024;BME280;61199;47.526;8.538;2022-12-08T00:21:21;96067.53;;;3.69;71.91
73024;BME280;61199;47.526;8.538;2022-12-08T00:23:53;96060.94;;;3.65;71.97
73024;BME280;61199;47.526;8.538;2022-12-08T00:26:20;96055.31;;;3.71;71.91
73024;BME280;61199;47.526;8.538;2022-12-08T00:28:47;96060.31;;;3.74;71.82
73024;BME280;61199;47.526;8.538;2022-12-08T00:31:16;96055.22;;;3.73;72.10
73024;BME280;61199;47.526;8.538;2022-12-08T00:33:42;96051.06;;;3.70;71.73
73024;BME280;61199;47.526;8.538;2022-12-08T00:36:11;96045.59;;;3.75;71.92
73024;BME280;61199;47.526;8.538;2022-12-08T00:38:38;96044.47;;;3.66;71.68
73024;BME280;61199;47.526;8.538;2022-12-08T00:41:13;96046.00;;;3.69;71.71
73024;BME280;61199;47.526;8.538;2022-12-08T00:43:40;96046.09;;;3.67;72.03
73024;BME280;61199;47.526;8.538;2022-12-08T00:46:07;96043.00;;;3.75;71.41
73024;BME280;61199;47.526;8.538;2022-12-08T00:48:33;96048.09;;;3.76;71.13
73024;BME280;61199;47.526;8.538;2022-12-08T00:51:00;96042.91;;;3.76;71.34
73024;BME280;61199;47.526;8.538;2022-12-08T00:53:27;96041.34;;;3.74;70.84
73024;BME280;61199;47.526;8.538;2022-12-08T00:55:53;96039.78;;;3.71;71.07
73024;BME280;61199;47.526;8.538;2022-12-08T00:58:19;96030.97;;;3.74;71.24
73024;BME280;61199;47.526;8.538;2022-12-08T01:00:46;96035.84;;;3.78;71.46
73024;BME280;61199;47.526;8.538;2022-12-08T01:03:12;96040.31;;;3.76;71.62
73024;BME280;61199;47.526;8.538;2022-12-08T01:05:38;96050.66;;;3.76;71.60
73024;BME280;61199;47.526;8.538;2022-12-08T01:08:06;96037.72;;;3.64;71.76
73024;BME280;61199;47.526;8.538;2022-12-08T01:10:37;96038.97;;;3.71;71.63
73024;BME280;61199;47.526;8.538;2022-12-08T01:13:04;96029.63;;;3.68;71.67
73024;BME280;61199;47.526;8.538;2022-12-08T01:15:31;96031.69;;;3.76;71.53
73024;BME280;61199;47.526;8.538;2022-12-08T01:17:57;96047.25;;;3.76;71.17
73024;BME280;61199;47.526;8.538;2022-12-08T01:20:24;96038.66;;;3.75;71.34
73024;BME280;61199;47.526;8.538;2022-12-08T01:22:50;96030.38;;;3.83;70.70
73024;BME280;61199;47.526;8.538;2022-12-08T01:25:17;96026.13;;;3.94;71.02
73024;BME280;61199;47.526;8.538;2022-12-08T01:27:43;96022.19;;;3.89;71.26
73024;BME280;61199;47.526;8.538;2022-12-08T01:30:10;96028.81;;;3.93;71.22
73024;BME280;61199;47.526;8.538;2022-12-08T01:32:38;96031.78;;;3.99;70.92
73024;BME280;61199;47.526;8.538;2022-12-08T01:35:04;96031.09;;;3.97;70.91
73024;BME280;61199;47.526;8.538;2022-12-08T01:37:31;96025.38;;;3.92;70.67
73024;BME280;61199;47.526;8.538;2022-12-08T01:39:57;96019.28;;;3.93;70.86
73024;BME280;61199;47.526;8.538;2022-12-08T01:42:24;96021.25;;;4.02;70.61
73024;BME280;61199;47.526;8.538;2022-12-08T01:45:05;96017.41;;;3.95;71.44
73024;BME280;61199;47.526;8.538;2022-12-08T01:47:43;96020.94;;;3.94;70.56
73024;BME280;61199;47.526;8.538;2022-12-08T01:50:12;96019.28;;;3.93;70.92
73024;BME280;61199;47.526;8.538;2022-12-08T01:53:01;96011.22;;;3.85;71.13
73024;BME280;61199;47.526;8.538;2022-12-08T01:55:46;96010.66;;;3.93;71.33
73024;BME280;61199;47.526;8.538;2022-12-08T01:58:22;96014.69;;;3.97;71.19
73024;BME280;61199;47.526;8.538;2022-12-08T02:00:51;96016.56;;;3.95;71.31
73024;BME280;61199;47.526;8.538;2022-12-08T02:03:24;96012.84;;;3.99;71.16
73024;BME280;61199;47.526;8.538;2022-12-08T02:05:53;96012.00;;;3.98;70.93
73024;BME280;61199;47.526;8.538;2022-12-08T02:08:20;96003.31;;;3.99;70.86
73024;BME280;61199;47.526;8.538;2022-12-08T02:10:50;96003.75;;;3.93;71.56
73024;BME280;61199;47.526;8.538;2022-12-08T02:13:18;96004.16;;;3.87;71.23
73024;BME280;61199;47.526;8.538;2022-12-08T02:21:50;95993.97;;;3.97;71.50
73024;BME280;61199;47.526;8.538;2022-12-08T02:24:36;95987.75;;;3.99;70.83
73024;BME280;61199;47.526;8.538;2022-12-08T02:30:21;95979.56;;;4.05;70.69
73024;BME280;61199;47.526;8.538;2022-12-08T02:43:47;95964.03;;;4.05;70.62
73024;BME280;61199;47.526;8.538;2022-12-08T02:46:28;95962.06;;;3.96;70.70
73024;BME280;61199;47.526;8.538;2022-12-08T02:48:56;95959.97;;;4.01;71.00
73024;BME280;61199;47.526;8.538;2022-12-08T02:51:24;95957.13;;;3.93;71.01
73024;BME280;61199;47.526;8.538;2022-12-08T02:53:51;95945.38;;;4.00;70.87
73024;BME280;61199;47.526;8.538;2022-12-08T03:04:40;95941.94;;;4.12;70.08
73024;BME280;61199;47.526;8.538;2022-12-08T03:07:17;95939.13;;;4.15;70.19
73024;BME280;61199;47.526;8.538;2022-12-08T03:09:53;95943.78;;;4.10;70.11
73024;BME280;61199;47.526;8.538;2022-12-08T03:12:32;95941.66;;;4.04;70.64
73024;BME280;61199;47.526;8.538;2022-12-08T03:15:05;95939.69;;;3.95;70.93
73024;BME280;61199;47.526;8.538;2022-12-08T03:17:36;95928.31;;;3.85;71.36
73024;BME280;61199;47.526;8.538;2022-12-08T03:20:07;95930.69;;;3.88;70.46
73024;BME280;61199;47.526;8.538;2022-12-08T03:22:35;95925.81;;;3.96;70.73
73024;BME280;61199;47.526;8.538;2022-12-08T03:25:04;95925.16;;;4.05;70.71
73024;BME280;61199;47.526;8.538;2022-12-08T03:27:31;95926.19;;;4.03;70.56
73024;BME280;61199;47.526;8.538;2022-12-08T03:29:58;95919.66;;;3.61;71.43
73024;BME280;61199;47.526;8.538;2022-12-08T03:35:07;95909.50;;;3.58;72.55
73024;BME280;61199;47.526;8.538;2022-12-08T03:37:35;95908.16;;;3.65;72.28
73024;BME280;61199;47.526;8.538;2022-12-08T03:40:04;95913.75;;;3.72;72.47
73024;BME280;61199;47.526;8.538;2022-12-08T03:42:32;95909.91;;;3.77;72.29
73024;BME280;61199;47.526;8.538;2022-12-08T03:44:58;95905.97;;;3.84;71.38
73024;BME280;61199;47.526;8.538;2022-12-08T03:47:24;95899.84;;;3.85;71.62
73024;BME280;61199;47.526;8.538;2022-12-08T03:49:51;95886.03;;;3.85;71.40
73024;BME280;61199;47.526;8.538;2022-12-08T03:52:17;95889.66;;;3.82;71.48
73024;BME280;61199;47.526;8.538;2022-12-08T03:54:44;95885.25;;;3.84;71.48
73024;BME280;61199;47.526;8.538;2022-12-08T03:57:10;95880.88;;;3.85;71.35
73024;BME280;61199;47.526;8.538;2022-12-08T03:59:36;95885.63;;;3.91;70.98
73024;BME280;61199;47.526;8.538;2022-12-08T04:02:03;95891.53;;;3.80;71.21
73024;BME280;61199;47.526;8.538;2022-12-08T04:04:29;95885.25;;;3.72;70.99
73024;BME280;61199;47.526;8.538;2022-12-08T04:06:56;95884.63;;;3.68;71.38
73024;BME280;61199;47.526;8.538;2022-12-08T04:09:22;95882.06;;;3.68;71.20
73024;BME280;61199;47.526;8.538;2022-12-08T04:11:49;95884.63;;;3.68;71.43
73024;BME280;61199;47.526;8.538;2022-12-08T04:14:15;95879.88;;;3.62;70.78
73024;BME280;61199;47.526;8.538;2022-12-08T04:16:41;95881.34;;;3.66;71.14
73024;BME280;61199;47.526;8.538;2022-12-08T04:19:08;95880.72;;;3.63;70.58
73024;BME280;61199;47.526;8.538;2022-12-08T04:21:34;95875.53;;;3.63;70.46
73024;BME280;61199;47.526;8.538;2022-12-08T04:24:00;95871.19;;;3.63;70.94
73024;BME280;61199;47.526;8.538;2022-12-08T04:26:27;95863.50;;;3.74;70.77
73024;BME280;61199;47.526;8.538;2022-12-08T04:28:54;95871.16;;;3.76;70.45
73024;BME280;61199;47.526;8.538;2022-12-08T04:31:20;95878.09;;;3.75;70.39
73024;BME280;61199;47.526;8.538;2022-12-08T04:33:46;95874.69;;;3.75;70.03
73024;BME280;61199;47.526;8.538;2022-12-08T04:36:13;95870.84;;;3.68;70.19
73024;BME280;61199;47.526;8.538;2022-12-08T04:38:40;95869.81;;;3.70;70.52
73024;BME280;61199;47.526;8.538;2022-12-08T04:41:06;95872.44;;;3.58;70.72
73024;BME280;61199;47.526;8.538;2022-12-08T04:43:34;95877.50;;;3.59;70.98
73024;BME280;61199;47.526;8.538;2022-12-08T04:46:00;95871.31;;;3.49;70.78
73024;BME280;61199;47.526;8.538;2022-12-08T04:48:26;95877.84;;;3.55;70.97
73024;BME280;61199;47.526;8.538;2022-12-08T04:50:53;95877.72;;;3.56;71.09
73024;BME280;61199;47.526;8.538;2022-12-08T04:53:19;95878.44;;;3.58;70.53
73024;BME280;61199;47.526;8.538;2022-12-08T04:55:46;95870.97;;;3.66;70.46
73024;BME280;61199;47.526;8.538;2022-12-08T04:58:17;95867.47;;;3.67;70.79
73024;BME280;61199;47.526;8.538;2022-12-08T05:00:45;95872.63;;;3.67;70.70
73024;BME280;61199;47.526;8.538;2022-12-08T05:03:13;95875.53;;;3.63;70.27
73024;BME280;61199;47.526;8.538;2022-12-08T05:05:40;95869.19;;;3.67;70.42
73024;BME280;61199;47.526;8.538;2022-12-08T05:08:08;95867.22;;;3.70;69.81
73024;BME280;61199;47.526;8.538;2022-12-08T05:10:35;95866.19;;;3.73;69.77
73024;BME280;61199;47.526;8.538;2022-12-08T05:13:01;95864.16;;;3.65;70.21
73024;BME280;61199;47.526;8.538;2022-12-08T05:15:28;95856.97;;;3.69;69.69
73024;BME280;61199;47.526;8.538;2022-12-08T05:17:54;95860.81;;;3.63;70.16
73024;BME280;61199;47.526;8.538;2022-12-08T05:20:20;95858.53;;;3.71;70.47
73024;BME280;61199;47.526;8.538;2022-12-08T05:22:47;95860.50;;;3.68;70.18
73024;BME280;61199;47.526;8.538;2022-12-08T05:25:13;95859.88;;;3.64;70.54
73024;BME280;61199;47.526;8.538;2022-12-08T05:27:40;95865.34;;;3.72;70.25
73024;BME280;61199;47.526;8.538;2022-12-08T05:30:07;95860.72;;;3.65;70.33
73024;BME280;61199;47.526;8.538;2022-12-08T05:32:33;95865.81;;;3.66;70.24
73024;BME280;61199;47.526;8.538;2022-12-08T05:35:00;95863.50;;;3.74;70.60
73024;BME280;61199;47.526;8.538;2022-12-08T05:37:26;95864.88;;;3.67;70.29
73024;BME280;61199;47.526;8.538;2022-12-08T05:39:52;95864.78;;;3.56;71.06
73024;BME280;61199;47.526;8.538;2022-12-08T05:42:19;95859.88;;;3.64;70.73
73024;BME280;61199;47.526;8.538;2022-12-08T05:44:50;95860.53;;;3.55;70.94
73024;BME280;61199;47.526;8.538;2022-12-08T05:47:16;95855.78;;;3.49;70.98
73024;BME280;61199;47.526;8.538;2022-12-08T05:49:43;95845.22;;;3.52;70.83
73024;BME280;61199;47.526;8.538;2022-12-08T05:52:10;95846.06;;;3.53;71.24
73024;BME280;61199;47.526;8.538;2022-12-08T05:54:36;95846.88;;;3.53;71.30
73024;BME280;61199;47.526;8.538;2022-12-08T05:57:03;95841.81;;;3.52;71.35
73024;BME280;61199;47.526;8.538;2022-12-08T05:59:29;95844.50;;;3.50;71.30
73024;BME280;61199;47.526;8.538;2022-12-08T06:01:55;95840.66;;;3.56;70.88
73024;BME280;61199;47.526;8.538;2022-12-08T06:04:22;95847.78;;;3.52;71.09
73024;BME280;61199;47.526;8.538;2022-12-08T06:06:48;95849.06;;;3.34;71.69
73024;BME280;61199;47.526;8.538;2022-12-08T06:09:15;95856.28;;;3.42;72.19
73024;BME280;61199;47.526;8.538;2022-12-08T06:11:41;95851.47;;;3.25;72.00
73024;BME280;61199;47.526;8.538;2022-12-08T06:14:10;95856.53;;;3.26;72.44
73024;BME280;61199;47.526;8.538;2022-12-08T06:16:39;95852.19;;;3.39;72.45
73024;BME280;61199;47.526;8.538;2022-12-08T06:19:06;95862.22;;;3.44;72.00
73024;BME280;61199;47.526;8.538;2022-12-08T06:21:32;95867.25;;;3.45;72.23
73024;BME280;61199;47.526;8.538;2022-12-08T06:23:59;95865.28;;;3.61;71.58
73024;BME280;61199;47.526;8.538;2022-12-08T06:26:25;95868.28;;;3.55;71.87
73024;BME280;61199;47.526;8.538;2022-12-08T06:28:52;95868.81;;;3.60;71.88
73024;BME280;61199;47.526;8.538;2022-12-08T06:31:24;95863.53;;;3.62;71.51
73024;BME280;61199;47.526;8.538;2022-12-08T06:33:52;95863.94;;;3.68;71.45
73024;BME280;61199;47.526;8.538;2022-12-08T06:36:21;95865.56;;;3.69;71.12
73024;BME280;61199;47.526;8.538;2022-12-08T06:38:48;95860.19;;;3.72;71.21
73024;BME280;61199;47.526;8.538;2022-12-08T06:41:15;95862.75;;;3.72;71.06
73024;BME280;61199;47.526;8.538;2022-12-08T06:43:42;95857.50;;;3.74;71.61
73024;BME280;61199;47.526;8.538;2022-12-08T06:46:11;95854.59;;;3.66;71.56
73024;BME280;61199;47.526;8.538;2022-12-08T06:48:38;95855.22;;;3.69;71.42
73024;BME280;61199;47.526;8.538;2022-12-08T06:51:06;95852.94;;;3.77;70.93
73024;BME280;61199;47.526;8.538;2022-12-08T06:53:33;95860.91;;;3.74;71.11
73024;BME280;61199;47.526;8.538;2022-12-08T06:55:59;95857.91;;;3.68;71.51
73024;BME280;61199;47.526;8.538;2022-12-08T06:58:26;95856.88;;;3.70;71.27
73024;BME280;61199;47.526;8.538;2022-12-08T07:00:52;95857.50;;;3.74;71.21
73024;BME280;61199;47.526;8.538;2022-12-08T07:03:19;95856.66;;;3.73;70.97
73024;BME280;61199;47.526;8.538;2022-12-08T07:05:45;95858.34;;;3.74;70.97
73024;BME280;61199;47.526;8.538;2022-12-08T07:08:12;95862.31;;;3.42;71.10
73024;BME280;61199;47.526;8.538;2022-12-08T07:10:38;95856.56;;;3.01;73.09
73024;BME280;61199;47.526;8.538;2022-12-08T07:13:05;95858.81;;;3.31;72.13
73024;BME280;61199;47.526;8.538;2022-12-08T07:15:31;95861.47;;;3.42;71.96
73024;BME280;61199;47.526;8.538;2022-12-08T07:17:57;95861.47;;;3.54;71.56
73024;BME280;61199;47.526;8.538;2022-12-08T07:20:25;95856.69;;;3.61;71.47
73024;BME280;61199;47.526;8.538;2022-12-08T07:22:52;95863.09;;;3.55;71.65
73024;BME280;61199;47.526;8.538;2022-12-08T07:25:19;95866.22;;;3.60;71.76
73024;BME280;61199;47.526;8.538;2022-12-08T07:27:45;95865.38;;;3.60;71.55
73024;BME280;61199;47.526;8.538;2022-12-08T07:30:12;95867.06;;;3.61;71.49
73024;BME280;61199;47.526;8.538;2022-12-08T07:32:39;95870.78;;;3.57;71.82
73024;BME280;61199;47.526;8.538;2022-12-08T07:35:06;95867.16;;;3.59;72.00
73024;BME280;61199;47.526;8.538;2022-12-08T07:37:34;95869.75;;;3.59;71.64
73024;BME280;61199;47.526;8.538;2022-12-08T07:40:00;95862.72;;;3.49;71.85
73024;BME280;61199;47.526;8.538;2022-12-08T07:42:27;95865.44;;;3.47;71.64
73024;BME280;61199;47.526;8.538;2022-12-08T07:44:54;95863.09;;;3.55;71.43
73024;BME280;61199;47.526;8.538;2022-12-08T07:47:20;95861.66;;;3.64;71.44
73024;BME280;61199;47.526;8.538;2022-12-08T07:49:47;95862.16;;;3.69;71.23
73024;BME280;61199;47.526;8.538;2022-12-08T07:52:13;95860.09;;;3.61;71.76
73024;BME280;61199;47.526;8.538;2022-12-08T07:54:40;95858.03;;;3.66;71.59
73024;BME280;61199;47.526;8.538;2022-12-08T07:57:06;95848.63;;;3.65;72.15
73024;BME280;61199;47.526;8.538;2022-12-08T07:59:34;95860.63;;;3.66;71.85
73024;BME280;61199;47.526;8.538;2022-12-08T08:02:00;95852.22;;;3.75;71.92
73024;BME280;61199;47.526;8.538;2022-12-08T08:04:50;95855.00;;;3.72;71.78
73024;BME280;61199;47.526;8.538;2022-12-08T08:07:16;95847.75;;;3.77;71.69
73024;BME280;61199;47.526;8.538;2022-12-08T08:09:43;95849.91;;;3.83;71.84
73024;BME280;61199;47.526;8.538;2022-12-08T08:12:10;95851.75;;;3.81;71.68
73024;BME280;61199;47.526;8.538;2022-12-08T08:14:56;95848.75;;;3.87;71.21
73024;BME280;61199;47.526;8.538;2022-12-08T08:17:22;95845.72;;;3.93;71.14
73024;BME280;61199;47.526;8.538;2022-12-08T08:19:49;95842.22;;;3.94;70.91
73024;BME280;61199;47.526;8.538;2022-12-08T08:22:15;95852.00;;;4.02;70.90
73024;BME280;61199;47.526;8.538;2022-12-08T08:24:42;95855.78;;;3.98;70.97
73024;BME280;61199;47.526;8.538;2022-12-08T08:27:11;95860.81;;;3.99;71.20
73024;BME280;61199;47.526;8.538;2022-12-08T08:29:37;95855.31;;;4.04;71.03
73024;BME280;61199;47.526;8.538;2022-12-08T08:32:04;95852.94;;;4.01;71.03
73024;BME280;61199;47.526;8.538;2022-12-08T08:34:30;95851.47;;;4.09;70.93
73024;BME280;61199;47.526;8.538;2022-12-08T08:36:59;95842.53;;;4.13;70.76
73024;BME280;61199;47.526;8.538;2022-12-08T08:39:26;95839.50;;;4.19;70.43
73024;BME280;61199;47.526;8.538;2022-12-08T08:41:52;95838.91;;;4.16;71.02
73024;BME280;61199;47.526;8.538;2022-12-08T08:44:18;95836.19;;;4.17;70.88
73024;BME280;61199;47.526;8.538;2022-12-08T08:46:45;95840.31;;;4.20;70.69
73024;BME280;61199;47.526;8.538;2022-12-08T08:49:11;95843.25;;;4.15;70.86
73024;BME280;61199;47.526;8.538;2022-12-08T08:51:38;95845.00;;;4.15;70.76
73024;BME280;61199;47.526;8.538;2022-12-08T08:54:04;95843.97;;;4.17;70.93
73024;BME280;61199;47.526;8.538;2022-12-08T08:56:31;95842.06;;;4.19;71.38
73024;BME280;61199;47.526;8.538;2022-12-08T08:58:57;95846.31;;;3.97;71.02
73024;BME280;61199;47.526;8.538;2022-12-08T09:01:26;95849.47;;;4.13;71.30
73024;BME280;61199;47.526;8.538;2022-12-08T09:03:54;95843.47;;;4.12;71.13
73024;BME280;61199;47.526;8.538;2022-12-08T09:06:21;95835.03;;;4.21;71.22
73024;BME280;61199;47.526;8.538;2022-12-08T09:08:48;95840.00;;;4.24;70.80
73024;BME280;61199;47.526;8.538;2022-12-08T09:11:16;95838.81;;;4.28;71.19
73024;BME280;61199;47.526;8.538;2022-12-08T09:13:46;95830.47;;;4.25;71.27
73024;BME280;61199;47.526;8.538;2022-12-08T09:16:14;95833.44;;;4.31;71.12
73024;BME280;61199;47.526;8.538;2022-12-08T09:18:40;95838.16;;;4.37;71.35
73024;BME280;61199;47.526;8.538;2022-12-08T09:21:09;95837.09;;;4.40;70.70
73024;BME280;61199;47.526;8.538;2022-12-08T09:23:38;95831.50;;;4.46;70.55
73024;BME280;61199;47.526;8.538;2022-12-08T09:26:04;95836.09;;;4.53;71.17
73024;BME280;61199;47.526;8.538;2022-12-08T09:28:31;95827.84;;;4.48;70.45
73024;BME280;61199;47.526;8.538;2022-12-08T09:30:58;95829.53;;;4.26;70.64
73024;BME280;61199;47.526;8.538;2022-12-08T09:33:24;95816.25;;;4.30;70.99
73024;BME280;61199;47.526;8.538;2022-12-08T09:35:50;95829.94;;;4.43;70.75
73024;BME280;61199;47.526;8.538;2022-12-08T09:38:17;95825.63;;;4.55;70.93
73024;BME280;61199;47.526;8.538;2022-12-08T09:40:48;95823.31;;;4.63;70.43
73024;BME280;61199;47.526;8.538;2022-12-08T09:46:08;95814.00;;;4.71;70.40
73024;BME280;61199;47.526;8.538;2022-12-08T09:48:42;95818.13;;;4.74;70.47
73024;BME280;61199;47.526;8.538;2022-12-08T09:51:10;95810.72;;;4.80;70.48
73024;BME280;61199;47.526;8.538;2022-12-08T09:53:44;95806.38;;;4.81;70.00
73024;BME280;61199;47.526;8.538;2022-12-08T09:56:30;95812.44;;;4.69;70.71
73024;BME280;61199;47.526;8.538;2022-12-08T09:59:02;95796.53;;;4.73;70.59
73024;BME280;61199;47.526;8.538;2022-12-08T10:01:31;95794.91;;;4.83;69.80
73024;BME280;61199;47.526;8.538;2022-12-08T10:03:59;95795.31;;;4.55;70.88
73024;BME280;61199;47.526;8.538;2022-12-08T10:06:27;95785.72;;;4.68;71.06
73024;BME280;61199;47.526;8.538;2022-12-08T10:09:34;95784.78;;;4.80;70.23
73024;BME280;61199;47.526;8.538;2022-12-08T10:17:48;95773.00;;;5.20;69.02
73024;BME280;61199;47.526;8.538;2022-12-08T10:20:24;95774.66;;;5.10;69.08
73024;BME280;61199;47.526;8.538;2022-12-08T10:25:59;95760.63;;;5.13;69.35
73024;BME280;61199;47.526;8.538;2022-12-08T10:28:26;95760.25;;;5.17;69.03
73024;BME280;61199;47.526;8.538;2022-12-08T10:30:52;95752.00;;;5.34;69.02
73024;BME280;61199;47.526;8.538;2022-12-08T10:33:20;95743.25;;;5.57;68.65
73024;BME280;61199;47.526;8.538;2022-12-08T10:35:55;95742.03;;;5.61;68.49
73024;BME280;61199;47.526;8.538;2022-12-08T10:38:34;95739.34;;;5.63;67.67
73024;BME280;61199;47.526;8.538;2022-12-08T10:43:41;95739.19;;;5.75;67.94
73024;BME280;61199;47.526;8.538;2022-12-08T10:46:17;95736.59;;;5.86;67.12
73024;BME280;61199;47.526;8.538;2022-12-08T10:48:54;95730.66;;;5.95;66.55
73024;BME280;61199;47.526;8.538;2022-12-08T10:51:23;95719.50;;;6.04;66.86
73024;BME280;61199;47.526;8.538;2022-12-08T10:53:50;95724.72;;;6.04;67.43
73024;BME280;61199;47.526;8.538;2022-12-08T10:56:16;95713.47;;;6.03;67.10
73024;BME280;61199;47.526;8.538;2022-12-08T10:58:44;95706.19;;;6.18;66.14
73024;BME280;61199;47.526;8.538;2022-12-08T11:01:24;95718.03;;;5.90;66.80
73024;BME280;61199;47.526;8.538;2022-12-08T11:03:55;95698.94;;;6.01;66.73
73024;BME280;61199;47.526;8.538;2022-12-08T11:09:01;95694.72;;;6.20;65.91
73024;BME280;61199;47.526;8.538;2022-12-08T11:11:48;95693.66;;;6.23;65.53
73024;BME280;61199;47.526;8.538;2022-12-08T11:14:17;95692.22;;;6.30;65.13
73024;BME280;61199;47.526;8.538;2022-12-08T11:16:44;95688.84;;;6.39;65.07
73024;BME280;61199;47.526;8.538;2022-12-08T11:19:16;95681.66;;;6.52;63.97
73024;BME280;61199;47.526;8.538;2022-12-08T11:21:44;95673.59;;;6.55;63.69
73024;BME280;61199;47.526;8.538;2022-12-08T11:26:48;95671.44;;;6.60;61.77
73024;BME280;61199;47.526;8.538;2022-12-08T11:29:15;95664.88;;;6.65;61.15
73024;BME280;61199;47.526;8.538;2022-12-08T11:31:46;95666.25;;;6.69;59.99
73024;BME280;61199;47.526;8.538;2022-12-08T11:34:25;95652.41;;;6.89;59.36
73024;BME280;61199;47.526;8.538;2022-12-08T11:36:55;95666.09;;;6.91;57.73
73024;BME280;61199;47.526;8.538;2022-12-08T11:39:25;95669.50;;;6.92;58.37
73024;BME280;61199;47.526;8.538;2022-12-08T11:41:53;95656.78;;;6.89;58.21
73024;BME280;61199;47.526;8.538;2022-12-08T11:44:43;95653.78;;;6.93;57.95
73024;BME280;61199;47.526;8.538;2022-12-08T11:47:22;95658.72;;;6.96;57.52
73024;BME280;61199;47.526;8.538;2022-12-08T11:50:02;95653.47;;;6.87;55.91
73024;BME280;61199;47.526;8.538;2022-12-08T11:52:47;95658.13;;;6.83;56.43
73024;BME280;61199;47.526;8.538;2022-12-08T11:55:37;95649.06;;;6.78;56.77
73024;BME280;61199;47.526;8.538;2022-12-08T11:58:35;95648.50;;;6.84;57.94
73024;BME280;61199;47.526;8.538;2022-12-08T12:01:04;95640.88;;;6.92;58.30
73024;BME280;61199;47.526;8.538;2022-12-08T12:03:39;95640.88;;;6.92;58.32
73024;BME280;61199;47.526;8.538;2022-12-08T12:12:08;95626.88;;;7.23;57.46
73024;BME280;61199;47.526;8.538;2022-12-08T12:17:44;95623.47;;;7.32;57.34
73024;BME280;61199;47.526;8.538;2022-12-08T12:20:17;95621.84;;;7.50;56.95
73024;BME280;61199;47.526;8.538;2022-12-08T12:22:50;95620.03;;;7.50;56.40
73024;BME280;61199;47.526;8.538;2022-12-08T12:25:21;95616.63;;;7.50;56.46
73024;BME280;61199;47.526;8.538;2022-12-08T12:27:50;95613.88;;;7.42;56.22
73024;BME280;61199;47.526;8.538;2022-12-08T12:30:24;95614.41;;;7.36;56.12
73024;BME280;61199;47.526;8.538;2022-12-08T12:32:55;95615.22;;;7.27;56.52
73024;BME280;61199;47.526;8.538;2022-12-08T12:37:57;95608.28;;;6.97;56.10
73024;BME280;61199;47.526;8.538;2022-12-08T12:40:28;95610.22;;;6.95;56.54
73024;BME280;61199;47.526;8.538;2022-12-08T12:45:30;95603.81;;;7.09;56.15
73024;BME280;61199;47.526;8.538;2022-12-08T12:53:03;95608.59;;;7.04;55.95
73024;BME280;61199;47.526;8.538;2022-12-08T12:55:52;95599.56;;;7.08;55.67
73024;BME280;61199;47.526;8.538;2022-12-08T13:04:10;95594.13;;;6.81;55.56
73024;BME280;61199;47.526;8.538;2022-12-08T13:06:44;95588.81;;;6.92;55.77
73024;BME280;61199;47.526;8.538;2022-12-08T13:09:21;95592.81;;;6.96;55.47
73024;BME280;61199;47.526;8.538;2022-12-08T13:11:52;95590.63;;;7.01;54.20
73024;BME280;61199;47.526;8.538;2022-12-08T13:14:26;95589.09;;;6.89;52.95
73024;BME280;61199;47.526;8.538;2022-12-08T13:16:55;95589.09;;;6.89;52.35
73024;BME280;61199;47.526;8.538;2022-12-08T13:19:22;95587.81;;;6.74;52.63
73024;BME280;61199;47.526;8.538;2022-12-08T13:21:50;95586.84;;;6.65;52.77
73024;BME280;61199;47.526;8.538;2022-12-08T13:29:39;95590.78;;;6.60;52.86
73024;BME280;61199;47.526;8.538;2022-12-08T13:34:39;95580.59;;;6.87;52.38
73024;BME280;61199;47.526;8.538;2022-12-08T13:42:14;95578.13;;;6.85;51.92
73024;BME280;61199;47.526;8.538;2022-12-08T13:47:41;95577.38;;;7.04;51.10
73024;BME280;61199;47.526;8.538;2022-12-08T13:50:52;95578.97;;;6.86;50.85
73024;BME280;61199;47.526;8.538;2022-12-08T13:53:43;95585.78;;;6.77;50.57
73024;BME280;61199;47.526;8.538;2022-12-08T13:56:38;95585.81;;;6.87;50.63
73024;BME280;61199;47.526;8.538;2022-12-08T13:59:28;95577.56;;;6.82;51.53
73024;BME280;61199;47.526;8.538;2022-12-08T14:02:02;95588.53;;;6.76;51.64
73024;BME280;61199;47.526;8.538;2022-12-08T14:04:30;95586.34;;;6.81;52.00
73024;BME280;61199;47.526;8.538;2022-12-08T14:07:17;95586.06;;;6.84;51.94
73024;BME280;61199;47.526;8.538;2022-12-08T14:09:44;95587.84;;;6.83;52.63
73024;BME280;61199;47.526;8.538;2022-12-08T14:12:18;95584.16;;;6.86;52.31
73024;BME280;61199;47.526;8.538;2022-12-08T14:14:48;95586.34;;;6.81;52.36
73024;BME280;61199;47.526;8.538;2022-12-08T14:17:32;95576.25;;;6.97;51.53
73024;BME280;61199;47.526;8.538;2022-12-08T14:22:35;95574.88;;;7.12;51.91
73024;BME280;61199;47.526;8.538;2022-12-08T14:25:04;95576.56;;;7.22;51.43
73024;BME280;61199;47.526;8.538;2022-12-08T14:27:35;95574.06;;;7.21;51.41
73024;BME280;61199;47.526;8.538;2022-12-08T14:30:27;95575.47;;;7.25;51.75
73024;BME280;61199;47.526;8.538;2022-12-08T14:32:56;95573.28;;;7.20;51.95
73024;BME280;61199;47.526;8.538;2022-12-08T14:35:24;95574.22;;;7.19;52.29
73024;BME280;61199;47.526;8.538;2022-12-08T14:37:54;95578.19;;;7.14;52.56
73024;BME280;61199;47.526;8.538;2022-12-08T14:40:27;95589.41;;;7.14;52.69
73024;BME280;61199;47.526;8.538;2022-12-08T14:56:24;95581.09;;;7.20;53.21
73024;BME280;61199;47.526;8.538;2022-12-08T15:01:33;95575.28;;;7.07;52.74
73024;BME280;61199;47.526;8.538;2022-12-08T15:04:14;95572.28;;;7.02;52.68
73024;BME280;61199;47.526;8.538;2022-12-08T15:06:50;95571.56;;;6.91;53.25
73024;BME280;61199;47.526;8.538;2022-12-08T15:14:52;95585.03;;;6.66;52.78
73024;BME280;61199;47.526;8.538;2022-12-08T15:17:44;95583.16;;;6.77;52.58
73024;BME280;61199;47.526;8.538;2022-12-08T15:20:29;95583.84;;;6.70;52.32